Time;durP1;ratioP1;P1;durP2;ratioP2;P2;SDS_P1;SDS_P2;PMS_P1;PMS_P2;Temp;Humidity;BMP_temperature;BMP_pressure;BME280_temperature;BME280_humidity;BME280_pressure;Samples;Min_cycle;Max_cycle;Signal;HPM_P1;HPM_P2
2021/05/01 00:02:26;;;;;;;32.80;28.03;;;;;;;;;;5073206;28;20233;-84
2021/05/01 00:04:54;;;;;;;34.43;29.10;;;;;;;;;;5062711;28;20620;-81
2021/05/01 00:07:22;;;;;;;35.20;29.03;;;;;;;;;;5079951;27;20225;-82
2021/05/01 00:09:49;;;;;;;34.80;29.40;;;;;;;;;;5069181;27;20484;-80
2021/05/01 00:12:17;;;;;;;35.23;30.40;;;;;;;;;;5074067;28;20235;-82
2021/05/01 00:14:44;;;;;;;39.37;31.87;;;;;;;;;;5062232;27;20233;-83
2021/05/01 00:17:12;;;;;;;40.27;31.13;;;;;;;;;;5077998;28;20225;-80
2021/05/01 00:19:41;;;;;;;34.87;29.63;;;;;;;;;;5073786;27;20225;-84
2021/05/01 00:22:09;;;;;;;30.83;26.33;;;;;;;;;;5088209;27;20321;-81
2021/05/01 00:24:37;;;;;;;35.17;29.13;;;;;;;;;;5073550;28;20233;-82
2021/05/01 00:27:05;;;;;;;34.30;28.50;;;;;;;;;;5072511;28;20228;-82
2021/05/01 00:29:33;;;;;;;37.47;30.47;;;;;;;;;;5099185;27;20288;-82
2021/05/01 00:32:02;;;;;;;39.17;30.60;;;;;;;;;;5068252;28;20591;-82
2021/05/01 00:34:30;;;;;;;37.57;30.20;;;;;;;;;;5067448;27;20245;-82
2021/05/01 00:36:57;;;;;;;35.67;29.60;;;;;;;;;;5083111;28;20225;-80
2021/05/01 00:39:25;;;;;;;38.23;29.77;;;;;;;;;;5063944;28;20233;-85
2021/05/01 00:41:53;;;;;;;34.50;28.20;;;;;;;;;;5064856;28;20666;-83
2021/05/01 00:44:21;;;;;;;35.00;29.37;;;;;;;;;;5059867;28;20240;-81
2021/05/01 00:46:48;;;;;;;37.10;29.37;;;;;;;;;;5078101;28;20244;-84
2021/05/01 00:49:16;;;;;;;35.60;28.90;;;;;;;;;;5079312;28;20232;-81
2021/05/01 00:51:43;;;;;;;37.50;30.33;;;;;;;;;;5077560;28;20737;-81
2021/05/01 00:54:11;;;;;;;37.17;31.13;;;;;;;;;;5062360;28;20227;-82
2021/05/01 00:56:39;;;;;;;40.03;31.37;;;;;;;;;;5072372;28;20229;-81
2021/05/01 00:59:07;;;;;;;35.00;29.40;;;;;;;;;;5076368;28;20584;-81
2021/05/01 01:01:36;;;;;;;42.97;31.37;;;;;;;;;;5078296;28;20221;-81
2021/05/01 01:04:04;;;;;;;39.93;31.17;;;;;;;;;;5060567;28;20230;-80
2021/05/01 01:06:32;;;;;;;36.57;29.10;;;;;;;;;;5076775;28;20236;-81
2021/05/01 01:08:59;;;;;;;36.23;30.50;;;;;;;;;;5075316;28;20234;-81
2021/05/01 01:11:27;;;;;;;35.23;28.47;;;;;;;;;;5075435;28;20601;-78
2021/05/01 01:14:07;;;;;;;35.57;29.03;;;;;;;;;;5076299;28;20242;-80
2021/05/01 01:16:35;;;;;;;35.00;27.90;;;;;;;;;;5088719;27;20252;-79
2021/05/01 01:19:04;;;;;;;33.17;26.87;;;;;;;;;;5084145;28;20236;-79
2021/05/01 01:21:40;;;;;;;34.53;27.73;;;;;;;;;;5077648;28;20239;-80
2021/05/01 01:24:09;;;;;;;38.40;29.93;;;;;;;;;;5080860;28;20237;-82
2021/05/01 01:26:38;;;;;;;35.47;28.00;;;;;;;;;;5090165;28;20233;-79
2021/05/01 01:29:06;;;;;;;33.77;27.60;;;;;;;;;;5087478;28;20206;-81
2021/05/01 01:31:34;;;;;;;36.07;28.90;;;;;;;;;;5092725;28;20331;-79
2021/05/01 01:34:03;;;;;;;38.03;29.50;;;;;;;;;;5125654;27;20214;-81
2021/05/01 01:36:31;;;;;;;33.17;26.37;;;;;;;;;;5074618;28;20238;-81
2021/05/01 01:38:58;;;;;;;37.10;27.83;;;;;;;;;;5069621;28;20223;-83
2021/05/01 01:41:27;;;;;;;38.10;28.20;;;;;;;;;;5063878;28;20229;-81
2021/05/01 01:43:54;;;;;;;32.70;26.53;;;;;;;;;;5072764;27;20229;-83
2021/05/01 01:46:22;;;;;;;32.83;26.67;;;;;;;;;;5056180;28;20225;-83
2021/05/01 01:48:49;;;;;;;35.00;27.60;;;;;;;;;;5079139;27;20236;-82
2021/05/01 01:51:17;;;;;;;31.60;26.07;;;;;;;;;;5063518;28;20252;-81
2021/05/01 01:53:45;;;;;;;34.47;28.17;;;;;;;;;;5073456;27;20222;-84
2021/05/01 01:56:12;;;;;;;29.97;26.27;;;;;;;;;;5071186;27;20225;-80
2021/05/01 01:58:40;;;;;;;31.67;25.83;;;;;;;;;;5055398;28;20237;-81
2021/05/01 02:01:10;;;;;;;31.80;26.83;;;;;;;;;;5091149;28;20337;-79
2021/05/01 02:03:37;;;;;;;33.63;27.57;;;;;;;;;;5084972;28;20219;-79
2021/05/01 02:06:06;;;;;;;32.30;26.50;;;;;;;;;;5081965;27;21665;-82
2021/05/01 02:08:33;;;;;;;33.83;26.07;;;;;;;;;;5085729;28;20226;-81
2021/05/01 02:11:10;;;;;;;39.50;27.67;;;;;;;;;;5095901;28;20218;-77
2021/05/01 02:13:37;;;;;;;36.80;28.10;;;;;;;;;;5081889;28;20229;-83
2021/05/01 02:16:06;;;;;;;35.67;27.40;;;;;;;;;;5079170;28;20222;-82
2021/05/01 02:18:34;;;;;;;35.87;26.63;;;;;;;;;;5059440;28;20229;-81
2021/05/01 02:21:01;;;;;;;33.33;26.27;;;;;;;;;;5083318;28;20238;-81
2021/05/01 02:23:29;;;;;;;36.03;27.63;;;;;;;;;;5079659;28;20226;-80
2021/05/01 02:25:56;;;;;;;37.10;26.37;;;;;;;;;;5064177;28;20256;-81
2021/05/01 02:28:24;;;;;;;36.73;27.13;;;;;;;;;;5064006;28;21377;-79
2021/05/01 02:30:51;;;;;;;39.60;28.33;;;;;;;;;;5062580;28;20251;-79
2021/05/01 02:33:20;;;;;;;36.40;27.50;;;;;;;;;;5069642;28;20244;-79
2021/05/01 02:35:47;;;;;;;34.40;27.80;;;;;;;;;;5061274;28;20230;-78
2021/05/01 02:38:15;;;;;;;36.30;28.27;;;;;;;;;;5075695;28;20230;-81
2021/05/01 02:40:43;;;;;;;37.77;29.10;;;;;;;;;;5082735;28;20241;-80
2021/05/01 02:43:12;;;;;;;37.87;28.33;;;;;;;;;;5076404;28;20225;-81
2021/05/01 02:45:41;;;;;;;40.37;29.53;;;;;;;;;;5072541;28;20272;-83
2021/05/01 02:48:09;;;;;;;41.60;29.10;;;;;;;;;;5079853;28;20544;-82
2021/05/01 02:50:38;;;;;;;39.90;30.07;;;;;;;;;;5086410;28;20233;-82
2021/05/01 02:53:06;;;;;;;40.30;29.77;;;;;;;;;;5069199;28;20226;-79
2021/05/01 02:55:34;;;;;;;39.63;30.27;;;;;;;;;;5081787;28;20222;-79
2021/05/01 02:58:01;;;;;;;46.37;33.00;;;;;;;;;;5079468;28;20714;-81
2021/05/01 03:00:30;;;;;;;39.87;29.03;;;;;;;;;;5072924;28;20230;-78
2021/05/01 03:02:58;;;;;;;39.10;29.10;;;;;;;;;;5074693;28;20638;-79
2021/05/01 03:05:26;;;;;;;39.67;29.60;;;;;;;;;;5058803;28;20215;-79
2021/05/01 03:07:54;;;;;;;41.00;29.57;;;;;;;;;;5069523;28;20691;-81
2021/05/01 03:10:23;;;;;;;43.67;29.80;;;;;;;;;;5084851;28;20221;-80
2021/05/01 03:12:51;;;;;;;44.70;30.23;;;;;;;;;;5071706;28;20229;-81
2021/05/01 03:15:19;;;;;;;41.20;29.30;;;;;;;;;;5076266;28;20280;-82
2021/05/01 03:17:46;;;;;;;38.03;28.77;;;;;;;;;;5075376;28;20228;-82
2021/05/01 03:20:15;;;;;;;41.87;31.03;;;;;;;;;;5072249;28;20229;-82
2021/05/01 03:22:43;;;;;;;41.00;29.70;;;;;;;;;;5079909;28;20635;-83
2021/05/01 03:25:12;;;;;;;44.97;32.67;;;;;;;;;;5069177;28;20236;-81
2021/05/01 03:27:39;;;;;;;39.00;29.67;;;;;;;;;;5090010;28;20229;-81
2021/05/01 03:30:09;;;;;;;38.53;28.57;;;;;;;;;;5083093;27;20706;-81
2021/05/01 03:32:37;;;;;;;41.13;28.43;;;;;;;;;;5061655;27;20729;-83
2021/05/01 03:35:06;;;;;;;40.83;28.97;;;;;;;;;;5077135;28;20222;-81
2021/05/01 03:37:34;;;;;;;37.47;26.60;;;;;;;;;;5055822;28;20221;-80
2021/05/01 03:40:04;;;;;;;41.67;28.40;;;;;;;;;;5089673;27;20300;-82
2021/05/01 03:42:33;;;;;;;39.67;26.97;;;;;;;;;;5104265;27;20226;-84
2021/05/01 03:45:01;;;;;;;39.97;27.60;;;;;;;;;;5080949;28;20246;-84
2021/05/01 03:47:29;;;;;;;41.17;26.53;;;;;;;;;;5066555;28;20221;-82
2021/05/01 03:49:56;;;;;;;43.07;28.80;;;;;;;;;;5072396;28;20226;-83
2021/05/01 03:52:24;;;;;;;40.33;27.50;;;;;;;;;;5092176;28;20238;-85
2021/05/01 03:54:51;;;;;;;37.53;26.00;;;;;;;;;;5063387;28;20692;-82
2021/05/01 03:57:19;;;;;;;37.20;26.00;;;;;;;;;;5067447;28;20237;-81
2021/05/01 03:59:47;;;;;;;41.43;27.20;;;;;;;;;;5063081;28;20240;-82
2021/05/01 04:02:15;;;;;;;38.83;25.97;;;;;;;;;;5072917;28;20230;-83
2021/05/01 04:04:42;;;;;;;40.37;28.40;;;;;;;;;;5071907;28;20465;-82
2021/05/01 04:07:10;;;;;;;42.83;25.97;;;;;;;;;;5078863;28;20232;-82
2021/05/01 04:09:38;;;;;;;43.30;25.90;;;;;;;;;;5064290;28;20222;-82
2021/05/01 04:12:08;;;;;;;40.53;27.23;;;;;;;;;;5065800;28;20237;-81
2021/05/01 04:14:36;;;;;;;39.77;27.13;;;;;;;;;;5080916;28;23076;-81
2021/05/01 04:17:04;;;;;;;39.67;27.27;;;;;;;;;;5075372;28;20234;-81
2021/05/01 04:19:33;;;;;;;43.47;28.50;;;;;;;;;;5061951;28;20221;-83
2021/05/01 04:22:04;;;;;;;38.47;25.50;;;;;;;;;;5087000;28;20235;-82
2021/05/01 04:24:32;;;;;;;37.07;25.20;;;;;;;;;;5070606;28;20222;-85
2021/05/01 04:26:59;;;;;;;39.27;26.33;;;;;;;;;;5080514;28;20225;-83
2021/05/01 04:29:27;;;;;;;36.00;27.23;;;;;;;;;;5081806;28;20695;-83
2021/05/01 04:31:54;;;;;;;40.17;26.33;;;;;;;;;;5080866;28;20240;-80
2021/05/01 04:34:23;;;;;;;36.50;26.30;;;;;;;;;;5064925;28;20595;-81
2021/05/01 04:36:51;;;;;;;39.67;27.60;;;;;;;;;;5069565;27;20599;-82
2021/05/01 04:39:18;;;;;;;42.03;29.23;;;;;;;;;;5064751;28;20244;-82
2021/05/01 04:41:47;;;;;;;40.40;29.37;;;;;;;;;;5067931;27;20234;-81
2021/05/01 04:44:14;;;;;;;40.57;25.67;;;;;;;;;;5068256;27;20237;-82
2021/05/01 04:46:42;;;;;;;40.43;27.87;;;;;;;;;;5052722;27;20296;-82
2021/05/01 04:49:09;;;;;;;42.27;25.17;;;;;;;;;;5072378;28;20236;-83
2021/05/01 04:51:38;;;;;;;38.10;22.57;;;;;;;;;;5061022;27;20214;-84
2021/05/01 04:54:07;;;;;;;34.40;20.53;;;;;;;;;;5076534;28;20227;-80
2021/05/01 04:56:35;;;;;;;35.73;21.27;;;;;;;;;;5080292;27;20220;-80
2021/05/01 04:59:03;;;;;;;35.57;21.37;;;;;;;;;;5124000;27;20213;-80
2021/05/01 05:01:31;;;;;;;31.40;19.83;;;;;;;;;;5076397;27;20624;-80
2021/05/01 05:03:58;;;;;;;35.27;20.83;;;;;;;;;;5075453;28;20390;-80
2021/05/01 05:06:26;;;;;;;35.80;20.57;;;;;;;;;;5076363;27;20351;-82
2021/05/01 05:08:54;;;;;;;39.60;21.80;;;;;;;;;;5054966;27;20709;-82
2021/05/01 05:11:24;;;;;;;36.13;21.93;;;;;;;;;;5079659;27;20237;-82
2021/05/01 05:13:52;;;;;;;32.30;20.77;;;;;;;;;;5075895;27;20226;-81
2021/05/01 05:16:20;;;;;;;34.17;21.13;;;;;;;;;;5095706;27;20222;-82
2021/05/01 05:18:48;;;;;;;32.23;19.57;;;;;;;;;;5057593;28;20235;-83
2021/05/01 05:21:15;;;;;;;30.07;19.30;;;;;;;;;;5081725;28;21142;-82
2021/05/01 05:23:43;;;;;;;29.97;18.93;;;;;;;;;;5081933;28;20242;-82
2021/05/01 05:26:12;;;;;;;32.93;20.33;;;;;;;;;;5075372;28;20226;-82
2021/05/01 05:28:40;;;;;;;30.70;19.23;;;;;;;;;;5086340;28;20746;-82
2021/05/01 05:31:07;;;;;;;28.93;18.60;;;;;;;;;;5088889;28;20602;-80
2021/05/01 05:33:35;;;;;;;29.63;18.87;;;;;;;;;;5081625;28;20605;-82
2021/05/01 05:36:03;;;;;;;27.60;18.27;;;;;;;;;;5062837;28;20246;-81
2021/05/01 05:38:30;;;;;;;27.87;19.03;;;;;;;;;;5077657;28;20225;-83
2021/05/01 05:40:58;;;;;;;30.00;19.37;;;;;;;;;;5078307;28;20237;-81
2021/05/01 05:43:28;;;;;;;29.67;19.23;;;;;;;;;;5082452;27;20704;-80
2021/05/01 05:45:55;;;;;;;30.37;19.00;;;;;;;;;;5084625;27;20604;-80
2021/05/01 05:48:23;;;;;;;31.03;19.67;;;;;;;;;;5072602;27;20576;-81
2021/05/01 05:50:50;;;;;;;29.20;19.13;;;;;;;;;;5072335;27;20223;-81
2021/05/01 05:53:18;;;;;;;29.30;19.17;;;;;;;;;;5075887;27;20229;-81
2021/05/01 05:55:45;;;;;;;30.83;20.17;;;;;;;;;;5063285;28;20230;-82
2021/05/01 05:58:13;;;;;;;29.30;19.13;;;;;;;;;;5075261;28;20595;-81
2021/05/01 06:00:41;;;;;;;28.87;20.20;;;;;;;;;;5078648;27;20304;-81
2021/05/01 06:03:09;;;;;;;31.83;19.73;;;;;;;;;;5063097;28;20226;-82
2021/05/01 06:05:39;;;;;;;29.43;18.40;;;;;;;;;;5106732;27;20218;-80
2021/05/01 06:08:07;;;;;;;29.47;19.37;;;;;;;;;;5102165;27;20237;-81
2021/05/01 06:10:37;;;;;;;27.37;18.83;;;;;;;;;;5076412;27;20249;-81
2021/05/01 06:13:05;;;;;;;32.10;20.90;;;;;;;;;;5081200;27;20227;-81
2021/05/01 06:15:33;;;;;;;28.90;19.87;;;;;;;;;;5109466;27;20691;-81
2021/05/01 06:18:02;;;;;;;28.50;19.67;;;;;;;;;;5079252;27;20225;-81
2021/05/01 06:20:30;;;;;;;27.60;19.10;;;;;;;;;;5096548;27;20727;-82
2021/05/01 06:22:59;;;;;;;31.23;20.27;;;;;;;;;;5100400;28;20234;-82
2021/05/01 06:25:28;;;;;;;29.40;19.33;;;;;;;;;;5104728;27;20230;-79
2021/05/01 06:27:56;;;;;;;27.17;18.53;;;;;;;;;;5067249;28;20779;-82
2021/05/01 06:30:24;;;;;;;29.93;21.00;;;;;;;;;;5061428;28;20593;-82
2021/05/01 06:32:52;;;;;;;30.97;20.43;;;;;;;;;;5078243;27;20247;-82
2021/05/01 06:35:21;;;;;;;28.53;20.20;;;;;;;;;;5081263;28;20729;-81
2021/05/01 06:37:51;;;;;;;31.77;20.43;;;;;;;;;;5083864;27;20589;-84
2021/05/01 06:40:22;;;;;;;32.73;20.83;;;;;;;;;;5106246;28;20225;-81
2021/05/01 06:42:58;;;;;;;31.67;20.67;;;;;;;;;;5075936;28;20225;-80
2021/05/01 06:45:25;;;;;;;32.40;21.13;;;;;;;;;;5085718;28;20217;-82
2021/05/01 06:47:54;;;;;;;33.10;20.87;;;;;;;;;;5085276;28;20214;-81
2021/05/01 06:50:24;;;;;;;32.30;22.20;;;;;;;;;;5080576;28;20225;-80
2021/05/01 06:52:51;;;;;;;32.90;21.70;;;;;;;;;;5071127;28;20249;-80
2021/05/01 06:55:20;;;;;;;35.83;22.00;;;;;;;;;;5085494;28;20620;-81
2021/05/01 06:57:49;;;;;;;30.53;20.60;;;;;;;;;;5086379;28;20230;-81
2021/05/01 07:00:18;;;;;;;25.47;18.37;;;;;;;;;;5083719;28;20734;-81
2021/05/01 07:02:48;;;;;;;28.53;19.63;;;;;;;;;;5070312;28;20229;-81
2021/05/01 07:05:16;;;;;;;29.73;19.07;;;;;;;;;;5081595;28;20223;-79
2021/05/01 07:07:57;;;;;;;29.73;21.10;;;;;;;;;;5066600;28;20229;-82
2021/05/01 07:10:26;;;;;;;28.93;19.40;;;;;;;;;;5081764;28;20222;-80
2021/05/01 07:13:04;;;;;;;29.40;19.53;;;;;;;;;;5060258;28;20234;-79
2021/05/01 07:15:32;;;;;;;29.33;20.80;;;;;;;;;;5070093;28;20226;-81
2021/05/01 07:18:00;;;;;;;28.30;18.87;;;;;;;;;;5094599;28;20216;-80
2021/05/01 07:20:27;;;;;;;29.03;20.57;;;;;;;;;;5099851;28;20218;-80
2021/05/01 07:22:55;;;;;;;26.57;17.97;;;;;;;;;;5112757;28;20208;-81
2021/05/01 07:25:27;;;;;;;28.13;20.57;;;;;;;;;;5100753;28;20215;-79
2021/05/01 07:28:13;;;;;;;28.23;17.87;;;;;;;;;;5076204;28;20221;-82
2021/05/01 07:30:47;;;;;;;25.50;17.73;;;;;;;;;;5070964;28;20589;-81
2021/05/01 07:33:20;;;;;;;27.30;19.63;;;;;;;;;;5076541;28;20719;-82
2021/05/01 07:35:50;;;;;;;25.70;18.73;;;;;;;;;;5084591;28;20236;-83
2021/05/01 07:38:19;;;;;;;25.33;18.87;;;;;;;;;;5100458;28;20218;-82
2021/05/01 07:40:47;;;;;;;26.57;19.30;;;;;;;;;;5084000;28;20221;-84
2021/05/01 07:43:16;;;;;;;26.50;18.87;;;;;;;;;;5067456;28;20570;-83
2021/05/01 07:45:46;;;;;;;25.03;17.90;;;;;;;;;;5082877;28;20602;-84
2021/05/01 07:48:15;;;;;;;26.83;19.20;;;;;;;;;;5082842;28;20707;-83
2021/05/01 07:50:43;;;;;;;28.03;20.13;;;;;;;;;;5105051;28;20214;-80
2021/05/01 07:53:11;;;;;;;27.97;19.40;;;;;;;;;;5104871;28;20218;-80
2021/05/01 07:55:40;;;;;;;27.70;19.57;;;;;;;;;;5080070;28;20228;-82
2021/05/01 07:58:08;;;;;;;26.77;19.07;;;;;;;;;;5073695;28;20230;-81
2021/05/01 08:00:37;;;;;;;25.10;18.13;;;;;;;;;;5068600;27;20232;-81
2021/05/01 08:03:05;;;;;;;28.17;18.60;;;;;;;;;;5064994;28;20706;-79
2021/05/01 08:05:33;;;;;;;25.27;18.73;;;;;;;;;;5078255;27;20226;-80
2021/05/01 08:08:01;;;;;;;25.77;19.40;;;;;;;;;;5056985;28;20355;-84
2021/05/01 08:10:40;;;;;;;23.57;16.43;;;;;;;;;;5078044;28;20233;-83
2021/05/01 08:13:09;;;;;;;23.73;17.50;;;;;;;;;;5055668;28;20230;-84
2021/05/01 08:15:42;;;;;;;24.37;18.00;;;;;;;;;;5087412;27;20221;-79
2021/05/01 08:18:09;;;;;;;26.07;18.83;;;;;;;;;;5054738;28;20218;-80
2021/05/01 08:20:37;;;;;;;23.53;17.63;;;;;;;;;;5076610;27;20515;-81
2021/05/01 08:23:05;;;;;;;25.63;19.03;;;;;;;;;;5070461;28;20229;-83
2021/05/01 08:25:32;;;;;;;25.83;17.83;;;;;;;;;;5082013;27;20604;-82
2021/05/01 08:28:00;;;;;;;24.00;17.20;;;;;;;;;;5062189;28;20226;-84
2021/05/01 08:30:28;;;;;;;23.40;16.90;;;;;;;;;;5077062;27;20897;-80
2021/05/01 08:32:56;;;;;;;24.13;17.47;;;;;;;;;;5096752;27;20227;-80
2021/05/01 08:35:24;;;;;;;22.40;16.63;;;;;;;;;;5072036;28;20836;-79
2021/05/01 08:37:51;;;;;;;25.57;17.87;;;;;;;;;;5079429;28;20230;-78
2021/05/01 08:40:35;;;;;;;25.87;17.37;;;;;;;;;;5083158;28;20704;-81
2021/05/01 08:43:09;;;;;;;26.30;17.47;;;;;;;;;;5067097;28;20238;-79
2021/05/01 08:45:37;;;;;;;26.30;18.43;;;;;;;;;;5058551;28;20693;-78
2021/05/01 08:48:05;;;;;;;25.13;18.60;;;;;;;;;;5112643;27;20729;-82
2021/05/01 08:50:38;;;;;;;23.20;17.50;;;;;;;;;;5060054;28;20590;-80
2021/05/01 08:53:07;;;;;;;24.37;17.70;;;;;;;;;;5058280;28;20233;-78
2021/05/01 08:55:38;;;;;;;24.73;17.07;;;;;;;;;;5077507;28;20218;-80
2021/05/01 08:58:08;;;;;;;26.17;18.27;;;;;;;;;;5072931;28;20226;-82
2021/05/01 09:00:39;;;;;;;23.73;17.93;;;;;;;;;;5038044;28;20234;-81
2021/05/01 09:03:09;;;;;;;21.43;15.97;;;;;;;;;;5042556;28;20230;-80
2021/05/01 09:05:38;;;;;;;24.23;17.20;;;;;;;;;;5046282;28;20223;-82
2021/05/01 09:08:08;;;;;;;25.47;18.63;;;;;;;;;;5050635;28;20234;-81
2021/05/01 09:10:40;;;;;;;28.27;19.67;;;;;;;;;;5060031;28;20616;-81
2021/05/01 09:13:13;;;;;;;25.23;17.93;;;;;;;;;;5081919;28;20245;-80
2021/05/01 09:15:54;;;;;;;24.67;17.73;;;;;;;;;;5076555;28;20231;-80
2021/05/01 09:18:26;;;;;;;25.30;18.23;;;;;;;;;;5080687;28;20225;-83
2021/05/01 09:20:53;;;;;;;21.17;15.43;;;;;;;;;;5071944;27;20241;-79
2021/05/01 09:23:21;;;;;;;23.70;17.00;;;;;;;;;;5083711;28;20230;-79
2021/05/01 09:25:53;;;;;;;21.83;16.80;;;;;;;;;;5096635;27;20360;-79
2021/05/01 09:28:22;;;;;;;22.73;17.40;;;;;;;;;;5085937;28;20613;-82
2021/05/01 09:31:02;;;;;;;20.97;16.27;;;;;;;;;;5065011;28;20237;-80
2021/05/01 09:33:31;;;;;;;21.67;15.90;;;;;;;;;;5075873;28;20221;-83
2021/05/01 09:36:04;;;;;;;22.20;16.77;;;;;;;;;;5080638;28;20231;-81
2021/05/01 09:38:33;;;;;;;22.30;16.27;;;;;;;;;;5085554;28;20226;-82
2021/05/01 09:41:13;;;;;;;22.17;16.80;;;;;;;;;;5065205;28;20632;-82
2021/05/01 09:43:58;;;;;;;22.50;17.00;;;;;;;;;;5078151;28;20494;-82
2021/05/01 09:46:27;;;;;;;21.40;15.57;;;;;;;;;;5078706;28;20537;-81
2021/05/01 09:49:06;;;;;;;21.00;15.27;;;;;;;;;;5071633;28;20711;-80
2021/05/01 09:51:43;;;;;;;22.40;16.00;;;;;;;;;;5071822;28;20233;-79
2021/05/01 09:54:11;;;;;;;21.10;15.87;;;;;;;;;;5076227;28;20225;-81
2021/05/01 09:56:48;;;;;;;19.63;15.03;;;;;;;;;;5077270;28;20230;-79
2021/05/01 09:59:17;;;;;;;19.83;15.73;;;;;;;;;;5074612;28;20252;-80
2021/05/01 10:01:56;;;;;;;21.20;15.07;;;;;;;;;;5069209;28;20217;-83
2021/05/01 10:04:24;;;;;;;20.47;15.57;;;;;;;;;;5069846;28;20229;-80
2021/05/01 10:07:02;;;;;;;18.93;14.57;;;;;;;;;;5076750;28;20590;-79
2021/05/01 10:09:32;;;;;;;19.27;14.70;;;;;;;;;;5077640;28;20241;-83
2021/05/01 10:12:06;;;;;;;19.40;15.13;;;;;;;;;;5074124;28;20245;-81
2021/05/01 10:14:45;;;;;;;22.30;14.70;;;;;;;;;;5068740;28;20646;-79
2021/05/01 10:17:15;;;;;;;17.70;13.80;;;;;;;;;;5082123;28;20237;-81
2021/05/01 10:19:50;;;;;;;18.03;13.97;;;;;;;;;;5078757;27;20230;-84
2021/05/01 10:22:32;;;;;;;18.30;14.60;;;;;;;;;;5076072;27;20218;-83
2021/05/01 10:25:01;;;;;;;18.30;13.30;;;;;;;;;;5075164;27;20214;-81
2021/05/01 10:27:29;;;;;;;18.13;13.83;;;;;;;;;;5051573;28;20696;-79
2021/05/01 10:30:03;;;;;;;17.90;12.87;;;;;;;;;;5055675;28;20712;-81
2021/05/01 10:32:41;;;;;;;16.27;13.77;;;;;;;;;;5076888;27;20217;-84
2021/05/01 10:35:09;;;;;;;16.97;13.00;;;;;;;;;;5081036;28;20234;-84
2021/05/01 10:37:38;;;;;;;17.50;12.83;;;;;;;;;;5077199;28;20230;-80
2021/05/01 10:40:07;;;;;;;18.97;13.53;;;;;;;;;;5079405;28;20267;-84
2021/05/01 10:42:37;;;;;;;17.10;12.67;;;;;;;;;;5078547;28;20219;-83
2021/05/01 10:45:07;;;;;;;15.20;12.20;;;;;;;;;;5059605;28;20230;-81
2021/05/01 10:47:35;;;;;;;18.53;12.77;;;;;;;;;;5098252;28;20209;-79
2021/05/01 10:50:21;;;;;;;14.73;11.43;;;;;;;;;;5082000;28;20233;-79
2021/05/01 10:52:49;;;;;;;14.90;12.07;;;;;;;;;;5076617;28;20238;-81
2021/05/01 10:55:17;;;;;;;15.10;11.87;;;;;;;;;;5054178;28;20230;-81
2021/05/01 10:57:56;;;;;;;15.87;12.73;;;;;;;;;;5049994;28;21723;-81
2021/05/01 11:00:25;;;;;;;16.00;12.70;;;;;;;;;;5042675;28;20234;-81
2021/05/01 11:03:00;;;;;;;16.00;11.93;;;;;;;;;;5043185;28;20724;-82
2021/05/01 11:05:32;;;;;;;13.87;10.20;;;;;;;;;;5054545;28;20218;-81
2021/05/01 11:08:04;;;;;;;15.70;12.20;;;;;;;;;;5056370;28;20226;-79
2021/05/01 11:10:34;;;;;;;13.00;10.33;;;;;;;;;;5076730;27;20718;-80
2021/05/01 11:13:04;;;;;;;15.03;12.43;;;;;;;;;;5066667;28;21112;-83
2021/05/01 11:15:42;;;;;;;16.07;12.37;;;;;;;;;;5089191;27;20237;-81
2021/05/01 11:18:15;;;;;;;14.10;11.40;;;;;;;;;;5090131;27;20215;-80
2021/05/01 11:20:43;;;;;;;16.83;12.23;;;;;;;;;;5075731;27;20230;-80
2021/05/01 11:23:14;;;;;;;15.33;11.83;;;;;;;;;;5080400;28;20696;-80
2021/05/01 11:25:42;;;;;;;15.07;12.57;;;;;;;;;;5063472;27;20223;-82
2021/05/01 11:32:18;;;;;;;14.57;11.77;;;;;;;;;;5008822;28;20232;-91
2021/05/01 11:34:56;;;;;;;16.00;12.13;;;;;;;;;;4981943;28;20230;-90
2021/05/01 11:37:26;;;;;;;14.27;10.90;;;;;;;;;;4993719;28;20212;-91
2021/05/01 11:39:56;;;;;;;15.67;12.03;;;;;;;;;;4993169;28;20748;-90
2021/05/01 11:42:24;;;;;;;17.27;12.47;;;;;;;;;;4986081;28;20212;-90
2021/05/01 11:44:52;;;;;;;17.23;12.47;;;;;;;;;;4977197;28;20225;-89
2021/05/01 11:47:24;;;;;;;17.77;13.13;;;;;;;;;;4977454;28;20213;-90
2021/05/01 11:49:54;;;;;;;17.80;13.10;;;;;;;;;;4976809;28;20197;-89
2021/05/01 11:52:36;;;;;;;15.33;12.40;;;;;;;;;;4977338;28;20186;-91
2021/05/01 11:55:18;;;;;;;17.07;13.00;;;;;;;;;;4992445;28;20225;-90
2021/05/01 11:57:48;;;;;;;17.97;13.67;;;;;;;;;;4992939;28;20204;-91
2021/05/01 12:47:48;;;;;;;23.87;14.60;;;;;;;;;;4912142;28;20216;-94
2021/05/01 12:50:23;;;;;;;22.53;15.67;;;;;;;;;;4895999;29;20221;-93
2021/05/01 12:52:54;;;;;;;21.27;15.33;;;;;;;;;;4886341;29;20244;-96
2021/05/01 12:55:22;;;;;;;21.90;15.60;;;;;;;;;;4882408;29;20235;-95
2021/05/01 12:57:49;;;;;;;20.83;16.07;;;;;;;;;;4893342;28;20228;-94
2021/05/01 13:00:23;;;;;;;20.80;15.93;;;;;;;;;;4887431;29;20247;-95
2021/05/01 13:03:17;;;;;;;23.23;16.47;;;;;;;;;;4895076;29;20225;-94
2021/05/01 13:05:50;;;;;;;20.57;15.37;;;;;;;;;;4902597;29;20222;-93
2021/05/01 13:08:22;;;;;;;22.00;15.97;;;;;;;;;;4895796;29;20216;-92
2021/05/01 13:10:51;;;;;;;19.83;15.03;;;;;;;;;;4904928;23;20240;-85
2021/05/01 13:13:31;;;;;;;21.23;15.23;;;;;;;;;;4875169;29;20236;-82
2021/05/01 13:16:05;;;;;;;21.40;15.03;;;;;;;;;;4897029;29;20622;-82
2021/05/01 13:19:06;;;;;;;19.87;14.73;;;;;;;;;;4895486;29;20221;-87
2021/05/01 13:21:50;;;;;;;20.73;14.73;;;;;;;;;;4895715;29;20244;-85
2021/05/01 13:24:18;;;;;;;18.53;12.57;;;;;;;;;;4891980;29;20575;-82
2021/05/01 13:26:51;;;;;;;19.20;15.23;;;;;;;;;;4879457;29;20237;-82
2021/05/01 13:29:23;;;;;;;18.00;14.93;;;;;;;;;;4878475;29;20237;-82
2021/05/01 13:31:51;;;;;;;17.17;13.90;;;;;;;;;;4876246;29;20234;-84
2021/05/01 13:34:20;;;;;;;16.67;13.83;;;;;;;;;;4890546;29;20581;-82
2021/05/01 13:36:48;;;;;;;17.37;14.23;;;;;;;;;;4893448;28;20240;-80
2021/05/01 13:39:17;;;;;;;17.83;13.83;;;;;;;;;;4879949;29;20620;-80
2021/05/01 13:42:02;;;;;;;20.60;15.17;;;;;;;;;;4888363;29;20244;-80
2021/05/01 13:44:38;;;;;;;16.30;13.73;;;;;;;;;;4874793;29;20221;-89
2021/05/01 13:47:17;;;;;;;18.30;14.83;;;;;;;;;;4877154;29;20243;-84
2021/05/01 13:49:47;;;;;;;21.57;14.97;;;;;;;;;;4885025;29;20366;-83
2021/05/01 13:52:24;;;;;;;17.93;14.37;;;;;;;;;;4880958;29;20218;-84
2021/05/01 13:54:52;;;;;;;19.00;15.07;;;;;;;;;;4887905;29;20331;-80
2021/05/01 13:57:27;;;;;;;19.40;15.43;;;;;;;;;;4891524;29;20244;-81
2021/05/01 13:59:59;;;;;;;20.33;15.53;;;;;;;;;;4885771;29;20256;-87
2021/05/01 14:02:34;;;;;;;17.60;14.90;;;;;;;;;;4895475;29;20228;-83
2021/05/01 14:05:04;;;;;;;19.73;15.23;;;;;;;;;;4897302;28;20228;-81
2021/05/01 14:07:32;;;;;;;19.87;15.13;;;;;;;;;;4881643;29;20230;-80
2021/05/01 14:10:04;;;;;;;19.23;14.93;;;;;;;;;;4875812;29;20237;-84
2021/05/01 14:12:33;;;;;;;19.27;14.50;;;;;;;;;;4882094;29;20704;-79
2021/05/01 14:15:02;;;;;;;17.03;13.87;;;;;;;;;;4880439;29;20236;-79
2021/05/01 14:17:30;;;;;;;17.97;14.43;;;;;;;;;;4871144;29;20217;-85
2021/05/01 14:19:59;;;;;;;18.63;14.33;;;;;;;;;;4890564;29;20235;-81
2021/05/01 14:22:29;;;;;;;18.40;14.60;;;;;;;;;;4870490;29;20236;-83
2021/05/01 14:25:01;;;;;;;19.20;15.43;;;;;;;;;;4888472;29;20228;-80
2021/05/01 14:27:51;;;;;;;22.33;14.97;;;;;;;;;;4892363;28;20240;-81
2021/05/01 14:31:07;;;;;;;20.90;16.03;;;;;;;;;;4869774;29;20791;-85
2021/05/01 14:33:37;;;;;;;17.53;13.63;;;;;;;;;;4883275;29;20229;-80
2021/05/01 14:36:07;;;;;;;19.97;14.07;;;;;;;;;;4874099;29;20244;-86
2021/05/01 14:38:37;;;;;;;21.60;14.87;;;;;;;;;;4875163;29;20244;-80
2021/05/01 14:41:08;;;;;;;19.33;14.13;;;;;;;;;;4883300;28;20225;-81
2021/05/01 14:43:37;;;;;;;19.27;14.53;;;;;;;;;;4886691;29;20236;-83
2021/05/01 14:46:19;;;;;;;18.80;14.03;;;;;;;;;;4900331;29;20228;-80
2021/05/01 14:49:10;;;;;;;21.10;15.17;;;;;;;;;;4868497;28;20232;-83
2021/05/01 14:51:41;;;;;;;21.30;14.00;;;;;;;;;;4900751;28;20225;-88
2021/05/01 14:54:15;;;;;;;19.77;13.27;;;;;;;;;;4898687;29;20235;-80
2021/05/01 14:57:05;;;;;;;17.93;13.53;;;;;;;;;;4889170;29;20240;-81
2021/05/01 14:59:36;;;;;;;18.07;13.23;;;;;;;;;;4891628;28;20224;-80
2021/05/01 15:02:16;;;;;;;18.20;13.07;;;;;;;;;;4892953;28;20247;-80
2021/05/01 15:04:52;;;;;;;21.07;13.37;;;;;;;;;;4879025;28;20237;-86
2021/05/01 15:07:21;;;;;;;17.27;12.80;;;;;;;;;;4859675;29;20746;-84
2021/05/01 15:09:59;;;;;;;19.37;13.50;;;;;;;;;;4880807;29;20240;-82
2021/05/01 15:12:26;;;;;;;18.10;13.50;;;;;;;;;;4855298;29;20860;-87
2021/05/01 15:15:07;;;;;;;17.77;12.47;;;;;;;;;;4887247;28;20254;-83
2021/05/01 15:17:49;;;;;;;17.67;13.17;;;;;;;;;;4885799;29;20710;-82
2021/05/01 15:20:22;;;;;;;17.73;12.50;;;;;;;;;;4878232;29;20249;-83
2021/05/01 15:22:51;;;;;;;17.77;12.67;;;;;;;;;;4872151;29;20225;-81
2021/05/01 15:25:22;;;;;;;17.33;12.57;;;;;;;;;;4883810;29;20233;-81
2021/05/01 15:27:49;;;;;;;19.77;13.37;;;;;;;;;;4893212;29;20247;-80